createdAt,value
2018-08-23T00:00:24.582Z,45.01
2018-08-23T00:01:24.590Z,44.61
2018-08-23T00:02:24.564Z,44.81
2018-08-23T00:03:24.536Z,44.91
2018-08-23T00:04:24.556Z,44.71
2018-08-23T00:05:24.531Z,44.91
2018-08-23T00:06:24.533Z,44.61
2018-08-23T00:07:24.518Z,44.71
2018-08-23T00:08:24.496Z,44.71
2018-08-23T00:09:24.424Z,44.71
2018-08-23T00:10:24.421Z,44.91
2018-08-23T00:11:24.479Z,44.81
2018-08-23T00:12:24.466Z,45.20
2018-08-23T00:13:24.350Z,45.10
2018-08-23T00:14:24.461Z,45.10
2018-08-23T00:15:24.427Z,45.10
2018-08-23T00:16:24.430Z,45.10
2018-08-23T00:17:24.407Z,45.10
2018-08-23T00:18:24.398Z,44.71
2018-08-23T00:19:24.368Z,44.71
2018-08-23T00:20:24.383Z,45.50
2018-08-23T00:21:24.369Z,45.10
2018-08-23T00:22:24.351Z,44.91
2018-08-23T00:23:24.251Z,45.60
2018-08-23T00:24:24.339Z,45.50
2018-08-23T00:25:24.391Z,45.50
2018-08-23T00:26:24.331Z,45.20
2018-08-23T00:27:24.313Z,45.40
2018-08-23T00:28:24.295Z,45.50
2018-08-23T00:29:24.307Z,45.40
2018-08-23T00:30:24.263Z,45.10
2018-08-23T00:31:24.182Z,45.20
2018-08-23T00:32:24.267Z,45.30
2018-08-23T00:33:24.237Z,45.60
2018-08-23T00:34:24.130Z,45.20
2018-08-23T00:35:24.227Z,45.20
2018-08-23T00:36:24.121Z,45.52
2018-08-23T00:37:24.205Z,45.50
2018-08-23T00:38:24.566Z,45.30
2018-08-23T00:39:24.078Z,45.79
2018-08-23T00:40:24.167Z,45.30
2018-08-23T00:41:24.063Z,45.89
2018-08-23T00:42:24.149Z,46.00
2018-08-23T00:43:24.029Z,45.70
2018-08-23T00:44:24.401Z,45.60
2018-08-23T00:45:24.115Z,45.62
2018-08-23T00:46:24.337Z,45.70
2018-08-23T00:47:24.106Z,45.50
2018-08-23T00:48:24.092Z,45.62
2018-08-23T00:49:24.067Z,45.72
2018-08-23T00:50:24.122Z,45.52
2018-08-23T00:51:23.944Z,45.52
2018-08-23T00:52:24.050Z,45.62
2018-08-23T00:53:23.939Z,45.42
2018-08-23T00:54:23.925Z,45.52
2018-08-23T00:55:24.005Z,45.89
2018-08-23T00:56:23.912Z,45.52
2018-08-23T00:57:23.906Z,45.42
2018-08-23T00:58:23.976Z,45.42
2018-08-23T00:59:23.875Z,45.52
2018-08-23T01:00:23.943Z,45.23
2018-08-23T01:01:23.850Z,45.23
2018-08-23T01:02:23.929Z,45.52
2018-08-23T01:03:25.057Z,45.42
2018-08-23T01:04:23.913Z,45.52
2018-08-23T01:05:23.795Z,45.32
2018-08-23T01:06:23.885Z,45.32
2018-08-23T01:07:23.788Z,45.03
2018-08-23T01:08:23.862Z,45.13
2018-08-23T01:09:23.882Z,45.32
2018-08-23T01:10:23.745Z,45.42
2018-08-23T01:11:23.844Z,45.32
2018-08-23T01:12:23.737Z,45.03
2018-08-23T01:13:23.822Z,45.32
2018-08-23T01:14:23.801Z,45.32
2018-08-23T01:15:23.712Z,45.42
2018-08-23T01:16:23.678Z,45.52
2018-08-23T01:17:23.699Z,45.52
2018-08-23T01:18:23.657Z,45.52
2018-08-23T01:19:23.764Z,45.52
2018-08-23T01:20:23.645Z,45.52
2018-08-23T01:21:23.724Z,45.52
2018-08-23T01:22:23.722Z,45.52
2018-08-23T01:23:23.610Z,45.42
2018-08-23T01:24:23.726Z,45.32
2018-08-23T01:25:23.608Z,45.13
2018-08-23T01:26:23.652Z,45.52
2018-08-23T01:27:23.576Z,45.62
2018-08-23T01:28:23.564Z,46.01
2018-08-23T01:29:23.556Z,45.92
2018-08-23T01:30:23.542Z,46.11
2018-08-23T01:31:23.542Z,45.72
2018-08-23T01:32:23.529Z,45.82
2018-08-23T01:33:23.509Z,45.52
2018-08-23T01:34:23.574Z,45.82
2018-08-23T01:35:23.490Z,45.82
2018-08-23T01:36:23.487Z,45.82
2018-08-23T01:37:23.467Z,45.82
2018-08-23T01:38:23.552Z,46.01
2018-08-23T01:39:23.537Z,46.01
2018-08-23T01:40:23.513Z,45.82
2018-08-23T01:41:23.515Z,46.11
2018-08-23T01:42:23.511Z,46.11
2018-08-23T01:43:23.493Z,45.72
2018-08-23T01:44:23.468Z,45.62
2018-08-23T01:45:23.376Z,45.82
2018-08-23T01:46:23.372Z,45.82
2018-08-23T01:47:23.439Z,45.72
2018-08-23T01:48:23.433Z,45.82
2018-08-23T01:49:23.432Z,45.82
2018-08-23T01:50:23.412Z,45.72
2018-08-23T01:51:23.399Z,45.84
2018-08-23T01:52:23.392Z,45.84
2018-08-23T01:53:23.299Z,45.62
2018-08-23T01:54:23.291Z,45.84
2018-08-23T01:55:23.273Z,45.84
2018-08-23T01:56:23.338Z,45.84
2018-08-23T01:57:23.325Z,45.84
2018-08-23T01:58:23.247Z,45.94
2018-08-23T01:59:23.217Z,45.84
2018-08-23T02:00:23.308Z,45.94
2018-08-23T02:01:23.200Z,45.94
2018-08-23T02:02:23.292Z,45.84
2018-08-23T02:03:23.189Z,45.94
2018-08-23T02:04:23.179Z,45.84
2018-08-23T02:05:23.265Z,45.54
2018-08-23T02:06:23.164Z,46.04
2018-08-23T02:07:23.205Z,45.94
2018-08-23T02:08:23.155Z,46.23
2018-08-23T02:09:23.125Z,45.94
2018-08-23T02:10:23.940Z,46.23
2018-08-23T02:11:23.299Z,45.94
2018-08-23T02:12:23.117Z,46.23
2018-08-23T02:13:23.100Z,46.23
2018-08-23T02:14:23.063Z,46.04
2018-08-23T02:15:23.048Z,45.74
2018-08-23T02:16:23.139Z,45.94
2018-08-23T02:17:23.040Z,45.74
2018-08-23T02:18:23.031Z,45.84
2018-08-23T02:19:23.021Z,46.14
2018-08-23T02:20:23.094Z,45.84
2018-08-23T02:21:22.996Z,45.84
2018-08-23T02:22:23.084Z,45.84
2018-08-23T02:23:23.074Z,46.33
2018-08-23T02:24:22.957Z,46.04
2018-08-23T02:25:22.957Z,46.04
2018-08-23T02:26:23.025Z,46.14
2018-08-23T02:27:22.934Z,46.04
2018-08-23T02:28:22.925Z,46.04
2018-08-23T02:29:22.903Z,46.04
2018-08-23T02:30:23.123Z,45.94
2018-08-23T02:31:22.879Z,45.94
2018-08-23T02:32:22.947Z,46.14
2018-08-23T02:33:22.883Z,45.94
2018-08-23T02:34:22.848Z,46.04
2018-08-23T02:35:22.850Z,46.44
2018-08-23T02:36:23.124Z,45.84
2018-08-23T02:37:22.947Z,46.04
2018-08-23T02:38:22.844Z,45.84
2018-08-23T02:39:22.910Z,46.23
2018-08-23T02:40:22.788Z,46.44
2018-08-23T02:41:22.774Z,46.44
2018-08-23T02:42:22.773Z,46.04
2018-08-23T02:43:22.865Z,46.33
2018-08-23T02:44:22.825Z,46.33
2018-08-23T02:45:22.744Z,46.33
2018-08-23T02:46:22.730Z,46.23
2018-08-23T02:47:22.711Z,46.14
2018-08-23T02:48:22.818Z,46.14
2018-08-23T02:49:22.912Z,46.04
2018-08-23T02:50:22.707Z,46.63
2018-08-23T02:51:22.740Z,45.94
2018-08-23T02:52:22.794Z,46.33
2018-08-23T02:53:22.658Z,46.04
2018-08-23T02:54:22.640Z,46.23
2018-08-23T02:55:22.635Z,46.23
2018-08-23T02:56:22.618Z,46.33
2018-08-23T02:57:22.613Z,46.33
2018-08-23T02:58:22.604Z,46.44
2018-08-23T02:59:22.600Z,46.33
2018-08-23T03:00:22.687Z,46.06
2018-08-23T03:01:22.593Z,46.06
2018-08-23T03:02:22.776Z,46.14
2018-08-23T03:03:22.685Z,46.23
2018-08-23T03:04:22.585Z,46.26
2018-08-23T03:05:22.608Z,46.33
2018-08-23T03:06:22.514Z,46.36
2018-08-23T03:07:22.630Z,46.36
2018-08-23T03:08:22.652Z,45.86
2018-08-23T03:09:22.638Z,46.23
2018-08-23T03:10:22.578Z,46.26
2018-08-23T03:11:22.588Z,46.26
2018-08-23T03:12:22.551Z,46.23
2018-08-23T03:13:22.468Z,46.26
2018-08-23T03:14:22.444Z,45.86
2018-08-23T03:15:22.415Z,46.36
2018-08-23T03:16:22.556Z,46.36
2018-08-23T03:17:22.509Z,45.76
2018-08-23T03:18:22.384Z,46.16
2018-08-23T03:19:22.380Z,45.76
2018-08-23T03:20:22.488Z,45.76
2018-08-23T03:21:22.352Z,45.67
2018-08-23T03:22:22.456Z,45.76
2018-08-23T03:23:22.332Z,45.76
2018-08-23T03:24:22.433Z,46.06
2018-08-23T03:25:22.321Z,46.45
2018-08-23T03:26:22.359Z,46.26
2018-08-23T03:27:22.304Z,46.45
2018-08-23T03:28:22.296Z,46.36
2018-08-23T03:29:22.833Z,46.26
2018-08-23T03:30:22.375Z,46.16
2018-08-23T03:31:22.675Z,46.26
2018-08-23T03:32:22.352Z,46.16
2018-08-23T03:33:22.227Z,46.16
2018-08-23T03:34:22.233Z,46.26
2018-08-23T03:35:22.317Z,46.26
2018-08-23T03:36:22.194Z,46.26
2018-08-23T03:37:22.183Z,46.06
2018-08-23T03:38:22.291Z,46.26
2018-08-23T03:39:22.184Z,46.26
2018-08-23T03:40:22.266Z,46.36
2018-08-23T03:41:23.944Z,46.16
2018-08-23T03:42:22.142Z,46.55
2018-08-23T03:43:22.170Z,46.16
2018-08-23T03:44:22.236Z,46.16
2018-08-23T03:45:22.113Z,46.45
2018-08-23T03:46:22.197Z,46.75
2018-08-23T03:47:22.079Z,46.45
2018-08-23T03:48:22.171Z,46.45
2018-08-23T03:49:22.146Z,46.55
2018-08-23T03:50:22.820Z,46.66
2018-08-23T03:51:22.133Z,46.45
2018-08-23T03:52:22.057Z,46.66
2018-08-23T03:53:22.141Z,46.45
2018-08-23T03:54:22.014Z,46.66
2018-08-23T03:55:22.121Z,46.67
2018-08-23T03:56:21.980Z,46.85
2018-08-23T03:57:22.097Z,46.58
2018-08-23T03:58:21.970Z,46.75
2018-08-23T03:59:22.065Z,46.78
2018-08-23T04:00:21.954Z,47.05
2018-08-23T04:01:21.941Z,46.95
2018-08-23T04:02:21.921Z,46.95
2018-08-23T04:03:21.911Z,47.05
2018-08-23T04:04:21.908Z,47.17
2018-08-23T04:05:21.920Z,46.95
2018-08-23T04:06:21.883Z,47.27
2018-08-23T04:07:21.972Z,47.17
2018-08-23T04:08:22.060Z,46.97
2018-08-23T04:09:21.977Z,47.47
2018-08-23T04:10:21.960Z,47.07
2018-08-23T04:11:21.833Z,46.97
2018-08-23T04:12:21.932Z,47.15
2018-08-23T04:13:21.797Z,47.25
2018-08-23T04:14:22.841Z,47.47
2018-08-23T04:15:21.794Z,47.27
2018-08-23T04:16:21.889Z,47.27
2018-08-23T04:17:21.760Z,47.27
2018-08-23T04:18:21.747Z,47.47
2018-08-23T04:19:21.748Z,47.17
2018-08-23T04:20:21.833Z,47.07
2018-08-23T04:21:21.728Z,47.07
2018-08-23T04:22:21.725Z,47.17
2018-08-23T04:23:21.744Z,47.27
2018-08-23T04:24:21.693Z,47.17
2018-08-23T04:25:21.813Z,47.17
2018-08-23T04:26:22.875Z,47.27
2018-08-23T04:27:21.656Z,46.88
2018-08-23T04:28:21.639Z,46.78
2018-08-23T04:29:21.725Z,46.97
2018-08-23T04:30:21.731Z,47.17
2018-08-23T04:31:21.625Z,47.17
2018-08-23T04:32:21.612Z,47.07
2018-08-23T04:33:21.603Z,46.88
2018-08-23T04:34:21.693Z,47.07
2018-08-23T04:35:21.613Z,47.07
2018-08-23T04:36:21.567Z,47.17
2018-08-23T04:37:21.602Z,46.88
2018-08-23T04:38:21.564Z,46.97
2018-08-23T04:39:21.562Z,47.07
2018-08-23T04:40:21.522Z,46.67
2018-08-23T04:41:21.526Z,47.07
2018-08-23T04:42:21.503Z,47.27
2018-08-23T04:43:21.678Z,47.37
2018-08-23T04:44:21.539Z,47.37
2018-08-23T04:45:21.631Z,46.78
2018-08-23T04:46:21.561Z,46.97
2018-08-23T04:47:21.617Z,47.17
2018-08-23T04:48:21.425Z,47.17
2018-08-23T04:49:21.559Z,47.37
2018-08-23T04:50:21.418Z,46.88
2018-08-23T04:51:21.506Z,47.27
2018-08-23T04:52:21.397Z,47.27
2018-08-23T04:53:21.477Z,47.17
2018-08-23T04:54:21.712Z,47.07
2018-08-23T04:55:21.488Z,47.07
2018-08-23T04:56:21.446Z,47.17
2018-08-23T04:57:21.641Z,47.07
2018-08-23T04:58:21.342Z,47.17
2018-08-23T04:59:21.321Z,47.27
2018-08-23T05:00:21.316Z,47.27
2018-08-23T05:01:21.446Z,46.78
2018-08-23T05:02:21.276Z,47.17
2018-08-23T05:03:21.277Z,46.88
2018-08-23T05:04:21.379Z,47.17
2018-08-23T05:05:21.266Z,47.37
2018-08-23T05:06:21.252Z,47.17
2018-08-23T05:07:21.230Z,47.27
2018-08-23T05:08:21.220Z,47.17
2018-08-23T05:09:21.311Z,47.17
2018-08-23T05:10:21.219Z,47.17
2018-08-23T05:11:21.302Z,47.07
2018-08-23T05:12:21.174Z,46.97
2018-08-23T05:13:21.273Z,46.88
2018-08-23T05:14:21.261Z,47.17
2018-08-23T05:15:21.150Z,46.88
2018-08-23T05:16:21.247Z,47.17
2018-08-23T05:17:21.122Z,47.07
2018-08-23T05:18:21.246Z,47.37
2018-08-23T05:19:21.237Z,47.17
2018-08-23T05:20:21.219Z,47.09
2018-08-23T05:21:21.216Z,46.88
2018-08-23T05:22:21.079Z,47.27
2018-08-23T05:23:21.301Z,46.78
2018-08-23T05:24:21.142Z,46.78
2018-08-23T05:25:21.168Z,46.88
2018-08-23T05:26:21.121Z,47.17
2018-08-23T05:27:21.153Z,47.07
2018-08-23T05:28:21.010Z,46.67
2018-08-23T05:29:20.995Z,46.97
2018-08-23T05:30:21.002Z,47.37
2018-08-23T05:31:21.112Z,47.17
2018-08-23T05:32:20.963Z,47.17
2018-08-23T05:33:20.979Z,47.27
2018-08-23T05:34:20.959Z,47.17
2018-08-23T05:35:21.138Z,47.17
2018-08-23T05:36:21.040Z,47.37
2018-08-23T05:37:20.904Z,47.07
2018-08-23T05:38:21.053Z,47.37
2018-08-23T05:39:20.900Z,47.07
2018-08-23T05:40:20.988Z,46.78
2018-08-23T05:41:20.957Z,47.27
2018-08-23T05:42:20.861Z,47.27
2018-08-23T05:43:20.841Z,46.97
2018-08-23T05:44:20.856Z,47.09
2018-08-23T05:45:20.839Z,47.17
2018-08-23T05:46:20.830Z,46.88
2018-08-23T05:47:20.923Z,47.27
2018-08-23T05:48:20.788Z,46.88
2018-08-23T05:49:20.788Z,46.97
2018-08-23T05:50:20.895Z,46.88
2018-08-23T05:51:20.893Z,47.37
2018-08-23T05:52:20.743Z,47.17
2018-08-23T05:53:20.830Z,47.37
2018-08-23T05:54:20.721Z,47.37
2018-08-23T05:55:20.751Z,47.17
2018-08-23T05:56:20.709Z,46.88
2018-08-23T05:57:21.247Z,47.37
2018-08-23T05:58:20.985Z,46.97
2018-08-23T05:59:20.669Z,47.47
2018-08-23T06:00:20.799Z,46.97
2018-08-23T06:01:20.715Z,47.37
2018-08-23T06:02:20.697Z,47.27
2018-08-23T06:03:20.752Z,47.29
2018-08-23T06:04:20.709Z,46.97
2018-08-23T06:05:20.628Z,46.97
2018-08-23T06:06:20.596Z,47.27
2018-08-23T06:07:20.684Z,47.07
2018-08-23T06:08:20.682Z,46.97
2018-08-23T06:09:20.562Z,47.47
2018-08-23T06:10:20.566Z,47.27
2018-08-23T06:11:20.632Z,47.27
2018-08-23T06:12:20.615Z,47.17
2018-08-23T06:13:20.538Z,46.97
2018-08-23T06:14:20.791Z,47.17
2018-08-23T06:15:20.518Z,46.97
2018-08-23T06:16:20.555Z,46.97
2018-08-23T06:17:20.499Z,46.97
2018-08-23T06:18:20.488Z,46.97
2018-08-23T06:19:21.062Z,46.97
2018-08-23T06:20:20.564Z,47.37
2018-08-23T06:21:20.581Z,47.37
2018-08-23T06:22:20.444Z,47.27
2018-08-23T06:23:20.541Z,47.07
2018-08-23T06:24:20.579Z,47.27
2018-08-23T06:25:20.423Z,46.97
2018-08-23T06:26:20.527Z,47.27
2018-08-23T06:27:20.517Z,47.07
2018-08-23T06:28:20.387Z,47.37
2018-08-23T06:29:25.399Z,47.37
2018-08-23T06:30:20.473Z,47.37
2018-08-23T06:31:20.356Z,47.07
2018-08-23T06:32:20.359Z,47.37
2018-08-23T06:33:20.661Z,47.27
2018-08-23T06:34:20.470Z,47.37
2018-08-23T06:35:20.316Z,47.07
2018-08-23T06:36:20.361Z,47.47
2018-08-23T06:37:20.436Z,47.27
2018-08-23T06:38:20.403Z,46.97
2018-08-23T06:39:20.253Z,46.97
2018-08-23T06:40:20.250Z,47.17
2018-08-23T06:41:20.357Z,46.78
2018-08-23T06:42:20.223Z,46.97
2018-08-23T06:43:23.297Z,47.17
2018-08-23T06:44:20.224Z,47.17
2018-08-23T06:45:20.178Z,47.17
2018-08-23T06:46:20.304Z,47.17
2018-08-23T06:47:20.273Z,47.17
2018-08-23T06:48:20.279Z,46.97
2018-08-23T06:49:20.185Z,47.27
2018-08-23T06:50:20.123Z,47.27
2018-08-23T06:51:20.319Z,47.17
2018-08-23T06:52:20.294Z,47.47
2018-08-23T06:53:20.120Z,47.37
2018-08-23T06:54:20.187Z,47.17
2018-08-23T06:55:20.130Z,46.97
2018-08-23T06:56:20.191Z,47.37
2018-08-23T06:57:20.338Z,47.37
2018-08-23T06:58:20.161Z,47.37
2018-08-23T06:59:20.061Z,47.37
2018-08-23T07:00:20.030Z,47.07
2018-08-23T07:01:20.066Z,47.07
2018-08-23T07:02:20.131Z,47.07
2018-08-23T07:03:20.140Z,47.27
2018-08-23T07:04:19.998Z,47.07
2018-08-23T07:05:20.198Z,47.37
2018-08-23T07:06:20.157Z,47.86
2018-08-23T07:07:19.970Z,48.26
2018-08-23T07:08:20.068Z,49.35
2018-08-23T07:09:20.032Z,50.56
2018-08-23T07:10:19.946Z,50.16
2018-08-23T07:11:19.929Z,50.95
2018-08-23T07:12:20.051Z,51.47
2018-08-23T07:13:20.056Z,51.60
2018-08-23T07:14:19.904Z,52.31
2018-08-23T07:15:20.002Z,52.59
2018-08-23T07:16:19.987Z,53.31
2018-08-23T07:17:19.945Z,53.43
2018-08-23T07:18:19.945Z,53.92
2018-08-23T07:19:19.949Z,54.62
2018-08-23T07:20:19.934Z,54.64
2018-08-23T07:21:19.838Z,55.34
2018-08-23T07:22:19.793Z,55.44
2018-08-23T07:23:19.866Z,55.27
2018-08-23T07:24:19.950Z,55.27
2018-08-23T07:25:21.228Z,54.97
2018-08-23T07:26:19.854Z,55.47
2018-08-23T07:27:19.862Z,55.36
2018-08-23T07:28:20.021Z,54.97
2018-08-23T07:29:19.855Z,54.47
2018-08-23T07:30:19.933Z,54.38
2018-08-23T07:31:20.118Z,54.38
2018-08-23T07:32:19.702Z,54.17
2018-08-23T07:33:19.782Z,54.77
2018-08-23T07:34:19.850Z,54.68
2018-08-23T07:35:19.782Z,54.38
2018-08-23T07:36:19.764Z,54.47
2018-08-23T07:37:19.750Z,54.08
2018-08-23T07:38:19.717Z,53.96
2018-08-23T07:39:19.661Z,53.96
2018-08-23T07:40:19.732Z,53.85
2018-08-23T07:41:19.723Z,53.85
2018-08-23T07:42:19.715Z,53.53
2018-08-23T07:43:19.940Z,53.75
2018-08-23T07:44:20.126Z,53.03
2018-08-23T07:45:19.623Z,53.13
2018-08-23T07:46:19.613Z,53.23
2018-08-23T07:47:19.651Z,53.43
2018-08-23T07:48:19.520Z,52.94
2018-08-23T07:49:19.705Z,53.03
2018-08-23T07:50:20.258Z,53.13
2018-08-23T07:51:19.632Z,52.94
2018-08-23T07:52:19.593Z,52.41
2018-08-23T07:53:21.476Z,52.61
2018-08-23T07:54:19.548Z,52.61
2018-08-23T07:55:19.560Z,52.51
2018-08-23T07:56:19.660Z,52.12
2018-08-23T07:57:19.433Z,51.72
2018-08-23T07:58:19.398Z,51.52
2018-08-23T07:59:19.503Z,51.82
2018-08-23T08:00:19.522Z,52.22
2018-08-23T08:01:19.515Z,52.19
2018-08-23T08:02:19.489Z,52.09
2018-08-23T08:03:19.517Z,51.60
2018-08-23T08:04:19.351Z,51.52
2018-08-23T08:05:19.449Z,51.50
2018-08-23T08:06:19.527Z,51.89
2018-08-23T08:07:19.436Z,51.70
2018-08-23T08:08:21.424Z,51.50
2018-08-23T08:09:19.416Z,51.30
2018-08-23T08:10:19.312Z,51.60
2018-08-23T08:11:19.402Z,51.79
2018-08-23T08:12:19.412Z,51.18
2018-08-23T08:13:19.370Z,51.18
2018-08-23T08:14:19.663Z,51.10
2018-08-23T08:15:19.455Z,50.98
2018-08-23T08:16:19.362Z,51.07
2018-08-23T08:17:19.311Z,50.98
2018-08-23T08:18:19.320Z,49.89
2018-08-23T08:19:19.299Z,50.09
2018-08-23T08:20:19.293Z,50.09
2018-08-23T08:21:19.286Z,50.48
2018-08-23T08:22:19.317Z,50.29
2018-08-23T08:23:19.131Z,50.06
2018-08-23T08:24:19.256Z,49.89
2018-08-23T08:25:19.252Z,49.77
2018-08-23T08:26:19.239Z,49.69
2018-08-23T08:27:19.342Z,49.77
2018-08-23T08:28:19.286Z,49.87
2018-08-23T08:29:19.206Z,50.56
2018-08-23T08:30:19.145Z,50.06
2018-08-23T08:31:19.142Z,50.36
2018-08-23T08:32:19.073Z,50.16
2018-08-23T08:33:19.285Z,50.06
2018-08-23T08:34:19.016Z,50.16
2018-08-23T08:35:19.030Z,49.66
2018-08-23T08:36:19.110Z,49.96
2018-08-23T08:37:19.226Z,49.96
2018-08-23T08:38:19.164Z,50.16
2018-08-23T08:39:19.093Z,50.24
2018-08-23T08:40:19.067Z,49.77
2018-08-23T08:41:18.941Z,49.74
2018-08-23T08:42:19.010Z,49.25
2018-08-23T08:43:19.070Z,49.84
2018-08-23T08:44:19.057Z,49.94
2018-08-23T08:45:19.027Z,49.54
2018-08-23T08:46:18.910Z,49.74
2018-08-23T08:47:18.897Z,49.54
2018-08-23T08:48:19.142Z,49.44
2018-08-23T08:49:19.016Z,49.15
2018-08-23T08:50:19.207Z,49.05
2018-08-23T08:51:19.039Z,49.25
2018-08-23T08:52:18.968Z,48.95
2018-08-23T08:53:18.815Z,49.15
2018-08-23T08:54:18.949Z,49.15
2018-08-23T08:55:18.907Z,49.15
2018-08-23T08:56:18.777Z,49.25
2018-08-23T08:57:18.980Z,49.35
2018-08-23T08:58:18.904Z,49.15
2018-08-23T08:59:18.771Z,49.13
2018-08-23T09:00:18.752Z,49.44
2018-08-23T09:01:18.729Z,48.14
2018-08-23T09:02:18.871Z,48.24
2018-08-23T09:03:18.823Z,48.43
2018-08-23T09:04:19.385Z,50.51
2018-08-23T09:05:18.881Z,51.03
2018-08-23T09:06:18.847Z,51.82
2018-08-23T09:07:18.698Z,52.12
2018-08-23T09:08:18.790Z,52.54
2018-08-23T09:09:18.753Z,53.45
2018-08-23T09:10:18.799Z,53.95
2018-08-23T09:11:18.711Z,53.67
2018-08-23T09:12:18.705Z,53.88
2018-08-23T09:13:18.734Z,54.27
2018-08-23T09:14:18.605Z,54.67
2018-08-23T09:15:18.695Z,54.37
2018-08-23T09:16:18.678Z,54.37
2018-08-23T09:17:18.674Z,54.27
2018-08-23T09:18:18.671Z,53.88
2018-08-23T09:19:18.692Z,53.88
2018-08-23T09:20:18.680Z,53.88
2018-08-23T09:21:19.199Z,54.07
2018-08-23T09:22:18.656Z,53.88
2018-08-23T09:23:19.037Z,53.67
2018-08-23T09:24:18.627Z,53.97
2018-08-23T09:25:18.665Z,54.17
2018-08-23T09:26:18.465Z,53.67
2018-08-23T09:27:18.877Z,53.67
2018-08-23T09:28:18.635Z,53.28
2018-08-23T09:29:18.594Z,53.67
2018-08-23T09:30:18.582Z,53.55
2018-08-23T09:31:18.537Z,53.55
2018-08-23T09:32:18.408Z,53.85
2018-08-23T09:33:18.411Z,53.45
2018-08-23T09:34:18.597Z,53.45
2018-08-23T09:35:18.485Z,53.55
2018-08-23T09:36:18.366Z,52.96
2018-08-23T09:37:18.351Z,53.16
2018-08-23T09:38:18.343Z,53.35
2018-08-23T09:39:18.336Z,53.25
2018-08-23T09:40:18.316Z,53.03
2018-08-23T09:41:18.412Z,53.16
2018-08-23T09:42:18.425Z,52.83
2018-08-23T09:43:18.296Z,53.03
2018-08-23T09:44:18.450Z,53.23
2018-08-23T09:45:18.617Z,53.33
2018-08-23T09:46:18.282Z,53.33
2018-08-23T09:47:18.373Z,52.83
2018-08-23T09:48:18.377Z,52.83
2018-08-23T09:49:18.223Z,52.93
2018-08-23T09:50:18.456Z,52.93
2018-08-23T09:51:18.628Z,52.83
2018-08-23T09:52:18.880Z,52.73
2018-08-23T09:53:18.286Z,52.64
2018-08-23T09:54:18.333Z,52.44
2018-08-23T09:55:18.282Z,52.34
2018-08-23T09:56:18.227Z,52.04
2018-08-23T09:57:18.272Z,51.54
2018-08-23T09:58:18.226Z,51.84
2018-08-23T09:59:18.111Z,51.75
2018-08-23T10:00:18.235Z,51.54
2018-08-23T10:01:18.100Z,51.75
2018-08-23T10:02:18.240Z,52.04
2018-08-23T10:03:18.077Z,51.54
2018-08-23T10:04:18.239Z,51.54
2018-08-23T10:05:18.187Z,51.75
2018-08-23T10:06:18.651Z,51.52
2018-08-23T10:07:18.121Z,51.52
2018-08-23T10:08:18.039Z,51.23
2018-08-23T10:09:18.430Z,51.25
2018-08-23T10:10:18.141Z,51.72
2018-08-23T10:11:18.567Z,51.82
2018-08-23T10:12:18.099Z,51.52
2018-08-23T10:13:18.096Z,51.03
2018-08-23T10:14:18.153Z,50.93
2018-08-23T10:15:17.949Z,50.63
2018-08-23T10:16:18.084Z,50.04
2018-08-23T10:17:18.035Z,50.04
2018-08-23T10:18:18.087Z,49.64
2018-08-23T10:19:18.041Z,49.54
2018-08-23T10:20:17.924Z,50.34
2018-08-23T10:21:17.981Z,50.24
2018-08-23T10:22:18.012Z,50.43
2018-08-23T10:23:17.871Z,49.72
2018-08-23T10:24:17.919Z,49.84
2018-08-23T10:25:17.966Z,49.84
2018-08-23T10:26:18.870Z,49.94
2018-08-23T10:27:17.967Z,49.94
2018-08-23T10:28:17.822Z,50.43
2018-08-23T10:29:17.948Z,49.52
2018-08-23T10:30:17.856Z,50.13
2018-08-23T10:31:17.843Z,50.04
2018-08-23T10:32:17.869Z,50.01
2018-08-23T10:33:17.885Z,49.94
2018-08-23T10:34:17.760Z,50.01
2018-08-23T10:35:17.868Z,49.91
2018-08-23T10:36:17.872Z,50.12
2018-08-23T10:37:17.737Z,50.01
2018-08-23T10:38:17.795Z,49.91
2018-08-23T10:39:17.691Z,46.26
2018-08-23T10:40:17.818Z,46.36
2018-08-23T10:41:17.781Z,45.86
2018-08-23T10:42:17.666Z,44.18
2018-08-23T10:43:17.788Z,45.57
2018-08-23T10:44:17.834Z,43.59
2018-08-23T10:45:17.717Z,44.18
2018-08-23T10:46:17.749Z,44.68
2018-08-23T10:47:18.471Z,44.09
2018-08-23T10:48:17.776Z,44.16
2018-08-23T10:49:18.699Z,43.69
2018-08-23T10:50:17.575Z,44.18
2018-08-23T10:51:17.692Z,43.59
2018-08-23T10:52:17.548Z,43.96
2018-08-23T10:53:17.666Z,44.85
2018-08-23T10:54:17.650Z,43.96
2018-08-23T10:55:17.528Z,42.48
2018-08-23T10:56:17.532Z,43.07
2018-08-23T10:57:17.511Z,42.68
2018-08-23T10:58:17.486Z,41.69
2018-08-23T10:59:17.484Z,41.10
2018-08-23T11:00:17.588Z,41.39
2018-08-23T11:01:17.446Z,41.39
2018-08-23T11:02:17.588Z,41.31
2018-08-23T11:03:17.437Z,41.30
2018-08-23T11:04:17.539Z,41.00
2018-08-23T11:05:17.416Z,41.69
2018-08-23T11:06:17.409Z,41.39
2018-08-23T11:07:18.845Z,41.30
2018-08-23T11:08:17.406Z,41.39
2018-08-23T11:09:17.478Z,42.29
2018-08-23T11:10:17.392Z,42.19
2018-08-23T11:11:17.457Z,42.19
2018-08-23T11:12:17.350Z,42.78
2018-08-23T11:13:17.498Z,42.78
2018-08-23T11:14:17.436Z,42.38
2018-08-23T11:15:17.442Z,42.48
2018-08-23T11:16:17.293Z,42.68
2018-08-23T11:17:17.974Z,42.76
2018-08-23T11:18:17.436Z,41.47
2018-08-23T11:19:17.393Z,41.38
2018-08-23T11:20:17.735Z,41.38
2018-08-23T11:21:17.296Z,42.16
2018-08-23T11:22:17.345Z,42.76
2018-08-23T11:23:17.336Z,41.47
2018-08-23T11:24:17.212Z,41.57
2018-08-23T11:25:17.328Z,42.66
2018-08-23T11:26:17.281Z,43.05
2018-08-23T11:27:17.181Z,43.05
2018-08-23T11:28:17.178Z,42.07
2018-08-23T11:29:17.188Z,42.46
2018-08-23T11:30:17.263Z,42.76
2018-08-23T11:31:17.263Z,40.96
2018-08-23T11:32:17.132Z,38.98
2018-08-23T11:33:17.208Z,39.00
2018-08-23T11:34:17.246Z,38.90
2018-08-23T11:35:17.327Z,39.11
2018-08-23T11:36:17.209Z,38.39
2018-08-23T11:37:17.059Z,38.98
2018-08-23T11:38:17.127Z,39.48
2018-08-23T11:39:17.989Z,39.38
2018-08-23T11:40:17.151Z,37.11
2018-08-23T11:41:17.173Z,38.69
2018-08-23T11:42:17.139Z,37.90
2018-08-23T11:43:17.828Z,37.90
2018-08-23T11:44:17.142Z,37.51
2018-08-23T11:45:17.095Z,38.89
2018-08-23T11:46:16.975Z,37.01
2018-08-23T11:47:16.950Z,37.68
2018-08-23T11:48:17.081Z,37.68
2018-08-23T11:49:16.942Z,36.90
2018-08-23T11:50:16.951Z,36.99
2018-08-23T11:51:16.925Z,36.99
2018-08-23T11:52:17.032Z,36.90
2018-08-23T11:53:17.106Z,37.49
2018-08-23T11:54:17.085Z,36.80
2018-08-23T11:55:16.880Z,36.99
2018-08-23T11:56:17.567Z,36.88
2018-08-23T11:57:16.980Z,38.06
2018-08-23T11:58:17.384Z,37.37
2018-08-23T11:59:17.699Z,36.78
2018-08-23T12:00:16.930Z,36.88
2018-08-23T12:01:16.916Z,37.57
2018-08-23T12:02:16.797Z,36.96
2018-08-23T12:03:16.919Z,37.65
2018-08-23T12:04:16.798Z,36.86
2018-08-23T12:05:16.900Z,36.76
2018-08-23T12:06:16.783Z,36.96
2018-08-23T12:07:16.757Z,37.26
2018-08-23T12:08:16.854Z,37.35
2018-08-23T12:09:16.864Z,37.35
2018-08-23T12:10:16.845Z,37.65
2018-08-23T12:11:16.824Z,37.73
2018-08-23T12:12:16.822Z,37.93
2018-08-23T12:13:16.801Z,38.02
2018-08-23T12:14:16.756Z,37.04
2018-08-23T12:15:16.771Z,37.24
2018-08-23T12:16:17.531Z,37.24
2018-08-23T12:17:16.711Z,38.02
2018-08-23T12:18:16.637Z,37.12
2018-08-23T12:19:16.635Z,37.34
2018-08-23T12:20:16.740Z,37.91
2018-08-23T12:21:16.752Z,38.20
2018-08-23T12:22:16.731Z,37.61
2018-08-23T12:23:16.717Z,37.51
2018-08-23T12:24:16.700Z,37.61
2018-08-23T12:25:17.383Z,37.81
2018-08-23T12:26:16.582Z,38.40
2018-08-23T12:27:16.526Z,37.43
2018-08-23T12:28:16.634Z,37.51
2018-08-23T12:29:16.617Z,36.33
2018-08-23T12:30:16.630Z,36.53
2018-08-23T12:31:16.619Z,37.14
2018-08-23T12:32:16.588Z,37.22
2018-08-23T12:33:16.581Z,37.91
2018-08-23T12:34:16.538Z,38.20
2018-08-23T12:35:18.704Z,38.30
2018-08-23T12:36:16.554Z,38.60
2018-08-23T12:37:17.430Z,37.61
2018-08-23T12:38:16.416Z,36.92
2018-08-23T12:39:16.606Z,37.02
2018-08-23T12:40:17.513Z,37.22
2018-08-23T12:41:16.403Z,36.82
2018-08-23T12:42:16.383Z,37.10
2018-08-23T12:43:16.359Z,37.49
2018-08-23T12:44:16.353Z,36.90
2018-08-23T12:45:18.445Z,37.20
2018-08-23T12:46:16.388Z,37.32
2018-08-23T12:47:16.316Z,37.01
2018-08-23T12:48:16.470Z,37.10
2018-08-23T12:49:16.389Z,37.10
2018-08-23T12:50:16.307Z,36.61
2018-08-23T12:51:16.400Z,37.20
2018-08-23T12:52:16.401Z,37.10